• Join FlightAware (Why Join?)
  • Login
  • US Flag 
10:44AM EDT


 

Airport Tracker/Info


-or-


 

Live Flight TrackerFlight Track Log ✈ AAL1714 ✈ 21-Apr-2013 ✈ KLAX - KLAS

Flight Track Log - Related Links

Times and Time Zones

All times are in EDT time to prevent confusion due to time zone crossing. See the AAL1714 flight status page for this flight to view local times or setup timezone preferences in your user account.

Time Position Orientation Groundspeed Altitude Reporting Facility
EDT Latitude Longitude Course Direction KTS MPH feet Rate Location/Type
06:52PM 33.9344 -118.4375 59° Northeast 172 198 1,400  Level Los Angeles Center
06:53PM 33.9156 -118.5178 254° West 230 265 3,000 1,860 Climbing Los Angeles Center
06:54PM 34.0870 -118.1494 54° Northeast  Level FlightAware Approximate
06:54PM 33.8661 -118.5697 221° Southwest 270 311 5,300  Level Los Angeles Center
06:55PM 34.1429 -118.0476 59° Northeast  Level FlightAware Approximate
06:55PM 33.8403 -118.4925 112° Southeast 278 320 8,200  Level Los Angeles Center
06:56PM 34.1952 -117.9429 59° Northeast  Level FlightAware Approximate
06:56PM 33.9047 -118.4481 30° Northeast 285 328 10,800  Level Los Angeles Center
06:57PM 34.2556 -117.8554 59° Northeast  Level FlightAware Approximate
06:57PM 33.9719 -118.3650 46° Northeast 355 409 12,900  Level Los Angeles Center
06:58PM 34.0314 -118.2594 56° Northeast 374 430 15,700 2,580 Climbing Los Angeles Center
06:59PM 34.0950 -118.1486 55° Northeast 395 455 18,300 2,700 Climbing Los Angeles Center
07:00PM 34.1731 -118.0103 56° Northeast 414 476 21,400 2,520 Climbing Los Angeles Center
07:01PM 34.2397 -117.8911 56° Northeast 425 489 23,600 1,920 Climbing Los Angeles Center
07:02PM 34.3089 -117.7686 56° Northeast 438 504 25,500 1,620 Climbing Los Angeles Center
07:03PM 34.3794 -117.6406 56° Northeast 454 522 27,000 720 Climbing Los Angeles Center
07:04PM 34.4575 -117.5003 56° Northeast 474 545 27,000  Level Los Angeles Center
07:05PM 34.5303 -117.3644 57° Northeast 481 554 27,000  Level Los Angeles Center
07:06PM 34.6042 -117.2311 56° Northeast 481 554 27,000  Level Los Angeles Center
07:07PM 34.6919 -117.0714 56° Northeast 479 551 27,000  Level Los Angeles Center
07:09PM 34.7653 -116.9389 56° Northeast 477 549 27,000  Level Los Angeles Center
07:10PM 34.8383 -116.8022 57° Northeast 483 556 27,000 -240 Level Los Angeles Center
07:11PM 34.9114 -116.6678 56° Northeast 477 549 26,600 -720 Descending Los Angeles Center
07:12PM 34.9883 -116.5436 53° Northeast 468 539 25,600 -1,140 Descending Los Angeles Center
07:13PM 35.0906 -116.4158 46° Northeast 442 509 24,300 -780 Descending Los Angeles Center
07:14PM 35.1739 -116.3114 46° Northeast 436 502 24,000 -1,020 Descending Los Angeles Center
07:15PM 35.2575 -116.2075 45° Northeast 430 495 22,200 -1,800 Descending Los Angeles Center
07:16PM 35.3375 -116.1061 46° Northeast 419 482 20,400 -1,800 Descending Los Angeles Center
07:17PM 35.4122 -116.0092 47° Northeast 397 457 18,600 -1,800 Descending Los Angeles Center
07:18PM 35.4842 -115.9186 46° Northeast 379 436 16,800 -2,040 Descending Los Angeles Center
07:18PM 35.5239 -115.8714 44° Northeast 371 427 15,800 -2,100 Descending Los Angeles Center
07:19PM 35.5494 -115.8394 45° Northeast 362 417 15,200 -1,200 Descending Los Angeles Center
07:19PM 35.5564 -115.8275 54° Northeast 362 417 15,000 -1,620 Descending Los Angeles Center
07:20PM 35.6156 -115.7550 45° Northeast 345 397 13,600 -1,680 Descending Los Angeles Center
07:20PM 35.6350 -115.7278 49° Northeast 345 397 13,300 -720 Descending Los Angeles Center
07:21PM 35.6781 -115.6744 45° Northeast 326 375 12,900 -420 Descending Los Angeles Center
07:21PM 35.6967 -115.6500 47° Northeast 325 374 12,900  Level Los Angeles Center
07:22PM 35.7356 -115.6003 46° Northeast 312 359 12,900  Level Los Angeles Center
07:22PM 35.7656 -115.5739 36° Northeast 308 354 12,900  Level Los Angeles Center
07:23PM 35.8136 -115.5725 North 299 344 12,900  Level Los Angeles Center
07:23PM 35.8494 -115.5681 North 297 342 12,900  Level Los Angeles Center
07:24PM 35.9006 -115.5656 North 299 344 12,900  Level Los Angeles Center
07:24PM 35.9325 -115.5619 North 299 344 12,900  Level Los Angeles Center
07:25PM 35.9906 -115.5522 North 296 341 12,900 -900 Level Los Angeles Center
07:25PM 36.0147 -115.5281 39° Northeast 298 343 12,000 -1,920 Descending Los Angeles Center
07:26PM 36.0250 -115.4614 79° East 319 367 11,000 -1,080 Descending Los Angeles Center
07:26PM 36.0267 -115.4231 87° East 311 358 10,900 -300 Descending Los Angeles Center
07:27PM 36.0283 -115.3567 88° East 293 337 10,700 -540 Descending Los Angeles Center
07:27PM 36.0283 -115.3244 90° East 296 341 10,400 -1,140 Descending Los Angeles Center
07:28PM 36.0206 -115.2608 99° East 283 326 9,600 -1,080 Descending Los Angeles Center
07:28PM 36.0200 -115.2297 91° East 284 327 9,300 -1,020 Descending Los Angeles Center
07:29PM 36.0142 -115.1619 96° East 276 318 8,600 -900 Descending Los Angeles Center
07:29PM 36.0136 -115.1353 91° East 279 321 8,400 -780 Descending Los Angeles Center
07:30PM 36.0108 -115.0861 94° East 246 283 7,900 -540 Descending Los Angeles Center
07:30PM 36.0078 -115.0547 97° East 249 287 7,900 -600 Level Los Angeles Center
07:31PM 36.0061 -115.0053 92° East 208 239 7,300 -1,200 Descending Los Angeles Center
07:31PM 36.0044 -114.9686 93° East 220 253 6,700 -1,020 Descending Los Angeles Center
07:32PM 36.0019 -114.9375 96° East 208 239 6,400 -720 Descending Los Angeles Center